Time;durP1;ratioP1;P1;durP2;ratioP2;P2;SDS_P1;SDS_P2;PMS_P1;PMS_P2;Temp;Humidity;BMP_temperature;BMP_pressure;BME280_temperature;BME280_humidity;BME280_pressure;Samples;Min_cycle;Max_cycle;Signal;HPM_P1;HPM_P2
2023/02/24 00:02:49;;;;;;;14.30;5.25;;;;;;;;;;10603381;27;20047;-75
2023/02/24 00:07:52;;;;;;;12.73;4.80;;;;;;;;;;10603763;27;20036;-74
2023/02/24 00:12:56;;;;;;;12.10;4.75;;;;;;;;;;10609254;27;20059;-76
2023/02/24 00:18:05;;;;;;;8.23;3.28;;;;;;;;;;10600329;27;20031;-75
2023/02/24 00:23:09;;;;;;;10.90;4.60;;;;;;;;;;10601218;27;20364;-75
2023/02/24 00:28:13;;;;;;;11.27;4.43;;;;;;;;;;10602174;27;20138;-76
2023/02/24 00:33:21;;;;;;;12.15;5.35;;;;;;;;;;10601572;27;20058;-77
2023/02/24 00:38:25;;;;;;;8.65;2.33;;;;;;;;;;10591654;27;20139;-78
2023/02/24 00:43:29;;;;;;;13.30;5.13;;;;;;;;;;10610963;27;20119;-78
2023/02/24 00:48:34;;;;;;;13.80;5.72;;;;;;;;;;10606497;27;20046;-77
2023/02/24 00:53:38;;;;;;;12.02;4.68;;;;;;;;;;10606885;27;20031;-77
2023/02/24 00:58:41;;;;;;;;;;;;;;;;;;10601511;27;20039;-77
2023/02/24 01:03:46;;;;;;;10.57;4.28;;;;;;;;;;10610195;27;20394;-77
2023/02/24 01:08:51;;;;;;;10.00;3.90;;;;;;;;;;10607906;27;20056;-74
2023/02/24 01:13:53;;;;;;;11.10;4.13;;;;;;;;;;10611437;27;20066;-75
2023/02/24 01:18:58;;;;;;;7.88;4.15;;;;;;;;;;10584762;27;20426;-75
2023/02/24 01:24:00;;;;;;;8.95;3.92;;;;;;;;;;10602916;27;20480;-75
2023/02/24 01:29:03;;;;;;;12.18;4.03;;;;;;;;;;10600975;27;20489;-75
2023/02/24 01:34:09;;;;;;;10.80;4.80;;;;;;;;;;10604535;27;20070;-76
2023/02/24 01:39:13;;;;;;;7.78;3.10;;;;;;;;;;10608675;27;20039;-76
2023/02/24 01:44:34;;;;;;;9.35;3.65;;;;;;;;;;10606827;27;20042;-74
2023/02/24 01:49:40;;;;;;;5.25;2.88;;;;;;;;;;10605344;27;20047;-76
2023/02/24 01:54:46;;;;;;;12.60;3.97;;;;;;;;;;10590028;27;20039;-74
2023/02/24 01:59:49;;;;;;;10.90;3.75;;;;;;;;;;10626176;27;20031;-77
2023/02/24 02:04:52;;;;;;;;;;;;;;;;;;10643418;27;20043;-76
2023/02/24 02:09:59;;;;;;;9.40;4.25;;;;;;;;;;10637294;27;19951;-76
2023/02/24 02:15:01;;;;;;;8.63;3.97;;;;;;;;;;10629333;27;20038;-76
2023/02/24 02:20:30;;;;;;;14.20;4.97;;;;;;;;;;10645654;27;20039;-76
2023/02/24 02:25:39;;;;;;;12.43;4.32;;;;;;;;;;10610402;27;20047;-75
2023/02/24 02:31:00;;;;;;;10.32;2.97;;;;;;;;;;10604311;27;20053;-75
2023/02/24 02:36:11;;;;;;;10.18;4.35;;;;;;;;;;10587100;27;20042;-76
2023/02/24 02:41:18;;;;;;;9.98;5.00;;;;;;;;;;10597916;27;20054;-76
2023/02/24 02:46:33;;;;;;;13.00;4.47;;;;;;;;;;10594251;27;20081;-76
2023/02/24 02:51:40;;;;;;;1.40;1.17;;;;;;;;;;10600990;27;20036;-76
2023/02/24 02:56:46;;;;;;;6.63;2.67;;;;;;;;;;10598226;27;20054;-76
2023/02/24 03:01:54;;;;;;;11.50;4.00;;;;;;;;;;10605873;27;20057;-76
2023/02/24 03:07:01;;;;;;;4.35;2.35;;;;;;;;;;10606880;27;20482;-77
2023/02/24 03:12:16;;;;;;;6.97;2.22;;;;;;;;;;10608236;27;20054;-75
2023/02/24 03:17:30;;;;;;;8.18;3.47;;;;;;;;;;10591107;27;20049;-75
2023/02/24 03:22:33;;;;;;;;;;;;;;;;;;10590270;27;21966;-75
2023/02/24 03:27:41;;;;;;;8.48;3.03;;;;;;;;;;10598097;27;19919;-76
2023/02/24 03:32:54;;;;;;;9.35;3.50;;;;;;;;;;10600570;27;20455;-77
2023/02/24 03:37:58;;;;;;;7.43;3.88;;;;;;;;;;10602596;27;20027;-76
2023/02/24 03:43:08;;;;;;;12.70;3.38;;;;;;;;;;10603499;27;20051;-76
2023/02/24 03:48:11;;;;;;;10.20;4.20;;;;;;;;;;10596092;27;20035;-75
2023/02/24 03:53:34;;;;;;;9.27;4.03;;;;;;;;;;10601780;27;20038;-75
2023/02/24 03:58:45;;;;;;;3.72;1.73;;;;;;;;;;10603428;27;20027;-75
2023/02/24 04:03:51;;;;;;;6.40;2.58;;;;;;;;;;10603029;27;20067;-76
2023/02/24 04:09:00;;;;;;;7.53;2.85;;;;;;;;;;10606468;27;20039;-76
2023/02/24 04:14:06;;;;;;;11.70;3.67;;;;;;;;;;10607315;27;20312;-75
2023/02/24 04:19:12;;;;;;;7.07;3.25;;;;;;;;;;10610049;27;20039;-77
2023/02/24 04:24:17;;;;;;;6.35;2.53;;;;;;;;;;10613591;27;20582;-76
2023/02/24 04:29:26;;;;;;;8.13;3.03;;;;;;;;;;10598582;27;20039;-75
2023/02/24 04:34:31;;;;;;;3.05;1.25;;;;;;;;;;10597045;27;20049;-75
2023/02/24 04:39:37;;;;;;;10.95;3.05;;;;;;;;;;10606433;27;20080;-75
2023/02/24 04:44:41;;;;;;;5.88;2.53;;;;;;;;;;10599488;27;20100;-75
2023/02/24 04:49:44;;;;;;;5.30;2.55;;;;;;;;;;10641475;27;20072;-75
2023/02/24 04:54:47;;;;;;;7.07;2.30;;;;;;;;;;10631606;27;20035;-72
2023/02/24 04:59:53;;;;;;;2.05;1.55;;;;;;;;;;10600333;27;20175;-75
2023/02/24 05:04:55;;;;;;;;;;;;;;;;;;10594635;27;20046;-76
2023/02/24 05:09:58;;;;;;;10.52;3.00;;;;;;;;;;10599535;27;20547;-75
2023/02/24 05:15:04;;;;;;;3.33;1.45;;;;;;;;;;10596413;27;20043;-75
2023/02/24 05:25:28;;;;;;;2.55;1.88;;;;;;;;;;10600332;27;20039;-76
2023/02/24 05:30:36;;;;;;;6.43;2.40;;;;;;;;;;10605128;27;20431;-75
2023/02/24 05:35:39;;;;;;;5.75;2.45;;;;;;;;;;10594507;27;20055;-75
2023/02/24 05:40:45;;;;;;;11.15;3.70;;;;;;;;;;10608770;27;20166;-76
2023/02/24 05:45:49;;;;;;;5.28;2.88;;;;;;;;;;10601037;27;20073;-76
2023/02/24 05:50:58;;;;;;;5.30;2.30;;;;;;;;;;10605472;27;20118;-77
2023/02/24 05:56:01;;;;;;;2.75;1.55;;;;;;;;;;10598894;27;20042;-77
2023/02/24 06:01:14;;;;;;;8.15;3.05;;;;;;;;;;10587475;27;20038;-75
2023/02/24 06:06:17;;;;;;;8.02;2.95;;;;;;;;;;10600015;27;20031;-77
2023/02/24 06:11:20;;;;;;;16.35;3.53;;;;;;;;;;10600253;27;20126;-77
2023/02/24 06:16:25;;;;;;;8.07;3.20;;;;;;;;;;10596027;27;20061;-77
2023/02/24 06:21:28;;;;;;;10.40;3.50;;;;;;;;;;10606602;27;20095;-75
2023/02/24 06:26:32;;;;;;;9.88;3.75;;;;;;;;;;10593887;27;20121;-76
2023/02/24 06:31:36;;;;;;;6.97;2.17;;;;;;;;;;10599660;27;20035;-75
2023/02/24 06:36:41;;;;;;;7.07;2.75;;;;;;;;;;10603075;27;20035;-75
2023/02/24 06:41:45;;;;;;;1.23;0.90;;;;;;;;;;10608341;27;20039;-76
2023/02/24 06:46:49;;;;;;;8.90;2.80;;;;;;;;;;10607434;27;20038;-75
2023/02/24 06:51:53;;;;;;;8.30;2.63;;;;;;;;;;10612905;27;20035;-76
2023/02/24 06:56:56;;;;;;;9.07;3.83;;;;;;;;;;10620902;27;20069;-78
2023/02/24 07:02:02;;;;;;;8.90;3.55;;;;;;;;;;10611092;27;20062;-76
2023/02/24 07:07:05;;;;;;;5.97;2.95;;;;;;;;;;10613745;27;20073;-76
2023/02/24 07:12:09;;;;;;;8.32;3.50;;;;;;;;;;10603311;27;20132;-78
2023/02/24 07:17:13;;;;;;;;;;;;;;;;;;10611513;27;20050;-77
2023/02/24 07:22:23;;;;;;;9.05;2.42;;;;;;;;;;10592944;27;19923;-77
2023/02/24 07:27:27;;;;;;;10.48;4.32;;;;;;;;;;10608857;27;20080;-78
2023/02/24 07:32:29;;;;;;;10.60;3.80;;;;;;;;;;10608050;27;20067;-76
2023/02/24 07:37:34;;;;;;;8.98;3.60;;;;;;;;;;10618147;27;20058;-76
2023/02/24 07:42:37;;;;;;;4.00;2.38;;;;;;;;;;10610147;27;20058;-76
2023/02/24 07:47:41;;;;;;;8.20;4.15;;;;;;;;;;10610644;27;20042;-77
2023/02/24 07:52:47;;;;;;;8.60;2.90;;;;;;;;;;10611974;27;20120;-77
2023/02/24 07:57:50;;;;;;;11.23;4.63;;;;;;;;;;10617411;27;20266;-75
2023/02/24 08:02:54;;;;;;;14.13;5.18;;;;;;;;;;10614858;27;20042;-76
2023/02/24 08:07:58;;;;;;;6.90;3.47;;;;;;;;;;10608294;27;20069;-76
2023/02/24 08:13:02;;;;;;;11.38;4.40;;;;;;;;;;10614411;27;20504;-75
2023/02/24 08:18:05;;;;;;;12.55;5.15;;;;;;;;;;10614561;27;20043;-77
2023/02/24 08:23:09;;;;;;;10.60;4.65;;;;;;;;;;10609822;27;20051;-78
2023/02/24 08:28:15;;;;;;;6.47;3.22;;;;;;;;;;10599384;27;20062;-75
2023/02/24 08:33:20;;;;;;;12.32;5.47;;;;;;;;;;10612572;27;20507;-77
2023/02/24 08:38:27;;;;;;;9.20;3.47;;;;;;;;;;10611933;27;20035;-75
2023/02/24 08:43:33;;;;;;;9.00;3.35;;;;;;;;;;10608654;27;20506;-75
2023/02/24 08:48:37;;;;;;;9.75;3.17;;;;;;;;;;10603678;27;20476;-74
2023/02/24 08:53:42;;;;;;;8.77;3.45;;;;;;;;;;10600748;27;20032;-78
2023/02/24 08:58:46;;;;;;;15.85;5.00;;;;;;;;;;10604507;27;20039;-77
2023/02/24 09:03:50;;;;;;;4.88;2.08;;;;;;;;;;10613548;27;20038;-77
2023/02/24 09:09:16;;;;;;;10.98;3.88;;;;;;;;;;10609394;27;20249;-78
2023/02/24 09:14:19;;;;;;;16.83;5.18;;;;;;;;;;10607602;27;20047;-78
2023/02/24 09:20:14;;;;;;;9.48;2.92;;;;;;;;;;10614050;27;20033;-77
2023/02/24 09:25:17;;;;;;;12.33;5.40;;;;;;;;;;10624992;27;20132;-77
2023/02/24 09:30:36;;;;;;;18.52;5.97;;;;;;;;;;10614541;27;20055;-78
2023/02/24 09:35:41;;;;;;;13.95;5.53;;;;;;;;;;10618318;27;20437;-81
2023/02/24 09:40:49;;;;;;;17.55;6.65;;;;;;;;;;10597157;27;20115;-78
2023/02/24 09:45:58;;;;;;;17.65;6.68;;;;;;;;;;10602800;27;20031;-80
2023/02/24 09:51:02;;;;;;;11.60;5.60;;;;;;;;;;10614966;27;20485;-80
2023/02/24 09:56:14;;;;;;;17.55;7.80;;;;;;;;;;10609996;27;20055;-80
2023/02/24 10:01:29;;;;;;;20.77;9.13;;;;;;;;;;10607976;27;20035;-80
2023/02/24 10:06:37;;;;;;;22.90;9.57;;;;;;;;;;10606196;27;20039;-81
2023/02/24 10:11:52;;;;;;;13.18;5.43;;;;;;;;;;10607492;27;20416;-81
2023/02/24 10:22:29;;;;;;;20.17;9.45;;;;;;;;;;10593632;27;20096;-81
2023/02/24 10:27:38;;;;;;;16.10;8.98;;;;;;;;;;10598050;27;20115;-80
2023/02/24 10:32:45;;;;;;;18.80;10.00;;;;;;;;;;10595698;27;20035;-79
2023/02/24 10:37:49;;;;;;;18.55;9.23;;;;;;;;;;10596701;27;20032;-79
2023/02/24 10:43:09;;;;;;;19.33;8.57;;;;;;;;;;10593447;27;20130;-79
2023/02/24 10:48:23;;;;;;;19.88;8.68;;;;;;;;;;10597852;27;20046;-79
2023/02/24 10:53:51;;;;;;;17.95;8.43;;;;;;;;;;10596543;27;20074;-79
2023/02/24 11:04:53;;;;;;;18.55;8.57;;;;;;;;;;10599886;27;20059;-78
2023/02/24 11:10:10;;;;;;;17.83;7.20;;;;;;;;;;10606020;27;20043;-78
2023/02/24 11:20:55;;;;;;;17.95;7.68;;;;;;;;;;10483469;28;20040;-78
2023/02/24 11:25:59;;;;;;;23.67;7.82;;;;;;;;;;10583862;27;20480;-79
2023/02/24 11:31:08;;;;;;;15.60;6.25;;;;;;;;;;10606301;27;20043;-79
2023/02/24 11:36:19;;;;;;;16.00;6.85;;;;;;;;;;10597167;27;20069;-79
2023/02/24 11:41:25;;;;;;;14.90;4.95;;;;;;;;;;10612004;27;20041;-79
2023/02/24 11:46:34;;;;;;;17.70;6.50;;;;;;;;;;10616269;27;20138;-78
2023/02/24 11:51:37;;;;;;;14.98;6.05;;;;;;;;;;10613610;27;20045;-78
2023/02/24 11:56:42;;;;;;;17.93;7.10;;;;;;;;;;10618638;27;20394;-77
2023/02/24 12:01:50;;;;;;;20.27;6.32;;;;;;;;;;10608113;27;20042;-78
2023/02/24 12:06:57;;;;;;;19.05;8.25;;;;;;;;;;10613675;27;20426;-77
2023/02/24 12:12:01;;;;;;;20.90;7.65;;;;;;;;;;10606139;27;20513;-77
2023/02/24 12:17:12;;;;;;;22.73;8.15;;;;;;;;;;10612538;27;20103;-78
2023/02/24 12:22:15;;;;;;;19.20;7.60;;;;;;;;;;10605423;27;20274;-77
2023/02/24 12:27:24;;;;;;;19.03;7.63;;;;;;;;;;10613148;27;20082;-78
2023/02/24 12:32:33;;;;;;;19.10;7.97;;;;;;;;;;10600369;27;20488;-77
2023/02/24 12:37:49;;;;;;;21.10;8.27;;;;;;;;;;10609268;27;20050;-78
2023/02/24 12:42:56;;;;;;;19.20;7.97;;;;;;;;;;10612508;27;20369;-77
2023/02/24 12:48:05;;;;;;;16.73;7.00;;;;;;;;;;10601471;27;20183;-79
2023/02/24 12:53:12;;;;;;;16.27;6.45;;;;;;;;;;10589849;27;20122;-78
2023/02/24 12:58:18;;;;;;;17.25;6.32;;;;;;;;;;10587746;27;20121;-77
2023/02/24 13:03:29;;;;;;;18.20;6.47;;;;;;;;;;10604409;27;20112;-77
2023/02/24 13:08:37;;;;;;;16.10;6.13;;;;;;;;;;10594573;27;20035;-77
2023/02/24 13:13:49;;;;;;;18.00;6.43;;;;;;;;;;10595403;27;20091;-76
2023/02/24 13:19:03;;;;;;;14.70;5.93;;;;;;;;;;10612073;27;20079;-76
2023/02/24 13:24:06;;;;;;;19.88;7.05;;;;;;;;;;10599980;27;20052;-78
2023/02/24 13:29:10;;;;;;;16.85;6.78;;;;;;;;;;10607916;27;20122;-76
2023/02/24 13:34:15;;;;;;;18.75;7.13;;;;;;;;;;10606348;27;20035;-76
2023/02/24 13:39:23;;;;;;;16.45;6.53;;;;;;;;;;10606248;27;20080;-77
2023/02/24 13:44:27;;;;;;;19.13;7.53;;;;;;;;;;10608307;27;20047;-75
2023/02/24 13:49:36;;;;;;;11.90;4.68;;;;;;;;;;10604256;27;20033;-76
2023/02/24 13:54:48;;;;;;;13.48;4.47;;;;;;;;;;10604832;27;20043;-76
2023/02/24 14:00:00;;;;;;;18.67;6.85;;;;;;;;;;10613216;27;20085;-77
2023/02/24 14:05:08;;;;;;;21.10;7.18;;;;;;;;;;10602467;27;20079;-76
2023/02/24 14:10:17;;;;;;;20.17;7.93;;;;;;;;;;10605441;27;20044;-76
2023/02/24 14:15:27;;;;;;;17.80;6.10;;;;;;;;;;10604259;27;20046;-77
2023/02/24 14:20:32;;;;;;;13.98;5.65;;;;;;;;;;10586808;27;20031;-79
2023/02/24 14:25:45;;;;;;;14.57;5.72;;;;;;;;;;10606008;27;20104;-76
2023/02/24 14:30:51;;;;;;;19.92;7.60;;;;;;;;;;10604140;27;20046;-77
2023/02/24 14:35:57;;;;;;;20.15;7.47;;;;;;;;;;10589804;27;20088;-76
2023/02/24 14:41:00;;;;;;;23.55;8.75;;;;;;;;;;10598442;27;20032;-76
2023/02/24 14:46:08;;;;;;;19.25;6.80;;;;;;;;;;10599077;27;20129;-75
2023/02/24 14:51:19;;;;;;;10.57;4.70;;;;;;;;;;10601326;27;20035;-76
2023/02/24 14:56:23;;;;;;;21.67;8.10;;;;;;;;;;10604754;27;20480;-76
2023/02/24 15:01:30;;;;;;;19.88;7.30;;;;;;;;;;10606323;27;20048;-77
2023/02/24 15:06:39;;;;;;;13.10;4.65;;;;;;;;;;10608757;27;20031;-77
2023/02/24 15:11:42;;;;;;;24.33;7.68;;;;;;;;;;10610417;27;20042;-77
2023/02/24 15:16:47;;;;;;;20.45;7.65;;;;;;;;;;10604445;27;20043;-77
2023/02/24 15:21:51;;;;;;;17.33;7.43;;;;;;;;;;10608743;27;20035;-78
2023/02/24 15:26:55;;;;;;;17.30;6.55;;;;;;;;;;10609324;27;20346;-77
2023/02/24 15:31:59;;;;;;;11.60;4.53;;;;;;;;;;10612941;27;20069;-77
2023/02/24 15:37:12;;;;;;;18.88;5.88;;;;;;;;;;10604759;27;20088;-77
2023/02/24 15:42:20;;;;;;;10.73;3.97;;;;;;;;;;10608332;27;20438;-77
2023/02/24 15:47:24;;;;;;;14.43;5.45;;;;;;;;;;10609235;27;20046;-76
2023/02/24 15:52:29;;;;;;;15.15;6.53;;;;;;;;;;10608258;27;20043;-76
2023/02/24 15:57:32;;;;;;;13.88;4.78;;;;;;;;;;10620828;27;20108;-85
2023/02/24 16:02:37;;;;;;;16.20;5.15;;;;;;;;;;10621958;27;20476;-85
2023/02/24 16:07:43;;;;;;;25.35;7.38;;;;;;;;;;10626669;27;20035;-87
2023/02/24 16:12:48;;;;;;;8.20;3.55;;;;;;;;;;10628279;27;20032;-87
2023/02/24 16:17:52;;;;;;;16.30;5.88;;;;;;;;;;10623424;27;20054;-87
2023/02/24 16:22:57;;;;;;;21.52;6.65;;;;;;;;;;10621242;27;20049;-88
2023/02/24 16:28:00;;;;;;;19.13;5.85;;;;;;;;;;10623330;27;20153;-87
2023/02/24 16:33:04;;;;;;;22.88;7.05;;;;;;;;;;10607070;27;20088;-88
2023/02/24 16:38:13;;;;;;;11.32;5.43;;;;;;;;;;10634016;27;20065;-86
2023/02/24 16:43:16;;;;;;;15.77;5.35;;;;;;;;;;10634889;27;20066;-88
2023/02/24 16:48:20;;;;;;;23.95;6.60;;;;;;;;;;10655626;27;20050;-87
2023/02/24 16:53:24;;;;;;;17.27;5.60;;;;;;;;;;10645389;27;20031;-86
2023/02/24 16:58:28;;;;;;;15.57;5.50;;;;;;;;;;10654504;27;20030;-85
2023/02/24 17:03:33;;;;;;;10.82;2.58;;;;;;;;;;10645856;27;20091;-86
2023/02/24 17:08:40;;;;;;;7.97;3.13;;;;;;;;;;10616337;27;20073;-85
2023/02/24 17:13:52;;;;;;;13.70;3.83;;;;;;;;;;10613288;27;20066;-84
2023/02/24 17:18:56;;;;;;;19.63;5.43;;;;;;;;;;10604941;27;20051;-85
2023/02/24 17:24:00;;;;;;;12.93;4.47;;;;;;;;;;10615756;27;20041;-87
2023/02/24 17:29:03;;;;;;;13.68;4.88;;;;;;;;;;10610870;27;20066;-85
2023/02/24 17:34:05;;;;;;;10.37;3.60;;;;;;;;;;10610113;27;20035;-86
2023/02/24 17:39:10;;;;;;;18.50;4.32;;;;;;;;;;10610228;27;20100;-87
2023/02/24 17:44:12;;;;;;;7.35;2.75;;;;;;;;;;10587182;27;20042;-86
2023/02/24 17:49:15;;;;;;;6.97;2.92;;;;;;;;;;10609586;27;20532;-86
2023/02/24 17:54:20;;;;;;;15.33;2.80;;;;;;;;;;10611950;27;20035;-86
2023/02/24 17:59:23;;;;;;;7.30;2.05;;;;;;;;;;10614950;27;20313;-89
2023/02/24 18:04:25;;;;;;;4.30;1.80;;;;;;;;;;10609939;27;20042;-86
2023/02/24 18:09:29;;;;;;;9.13;1.65;;;;;;;;;;10608910;27;20119;-89
2023/02/24 18:14:32;;;;;;;9.27;2.25;;;;;;;;;;10617516;27;20456;-86
2023/02/24 18:19:34;;;;;;;8.35;2.58;;;;;;;;;;10615600;27;20058;-86
2023/02/24 18:24:39;;;;;;;6.75;2.03;;;;;;;;;;10613004;27;20540;-87
2023/02/24 18:29:41;;;;;;;;;;;;;;;;;;10604867;27;20028;-85
2023/02/24 18:34:44;;;;;;;10.77;2.45;;;;;;;;;;10615035;27;19919;-85
2023/02/24 18:39:49;;;;;;;5.78;1.38;;;;;;;;;;10626337;27;20043;-86
2023/02/24 18:44:52;;;;;;;9.73;3.40;;;;;;;;;;10624889;27;20032;-87
2023/02/24 18:49:54;;;;;;;4.93;2.05;;;;;;;;;;10615718;27;20051;-88
2023/02/24 18:54:59;;;;;;;;;;;;;;;;;;10592455;27;20039;-86
2023/02/24 19:00:14;;;;;;;6.60;2.38;;;;;;;;;;10612663;27;20062;-87
2023/02/24 19:05:46;;;;;;;9.63;2.55;;;;;;;;;;10588882;27;20084;-89
2023/02/24 19:10:53;;;;;;;15.75;4.20;;;;;;;;;;10627168;27;20055;-88
2023/02/24 19:16:08;;;;;;;16.65;3.67;;;;;;;;;;10601143;27;20134;-88
2023/02/24 19:21:24;;;;;;;18.67;3.65;;;;;;;;;;10615686;27;20115;-87
2023/02/24 19:26:29;;;;;;;7.87;2.90;;;;;;;;;;10627043;27;20048;-88
2023/02/24 19:31:52;;;;;;;15.55;3.60;;;;;;;;;;10634470;27;20043;-87
2023/02/24 19:37:10;;;;;;;13.82;4.00;;;;;;;;;;10621975;27;20146;-88
2023/02/24 19:42:39;;;;;;;11.70;3.58;;;;;;;;;;10630799;27;20511;-87
2023/02/24 19:48:14;;;;;;;15.43;3.65;;;;;;;;;;10623461;27;20067;-86
2023/02/24 19:53:40;;;;;;;12.53;2.47;;;;;;;;;;10616045;27;20039;-88
2023/02/24 19:59:06;;;;;;;18.55;4.03;;;;;;;;;;10625607;27;20091;-88
2023/02/24 20:04:23;;;;;;;10.57;3.50;;;;;;;;;;10598252;27;20121;-88
2023/02/24 20:09:37;;;;;;;13.77;4.03;;;;;;;;;;10621384;27;20054;-87
2023/02/24 20:14:51;;;;;;;18.13;3.95;;;;;;;;;;10612434;27;20425;-91
2023/02/24 20:20:15;;;;;;;17.10;4.00;;;;;;;;;;10621205;27;20074;-89
2023/02/24 20:25:36;;;;;;;13.85;4.28;;;;;;;;;;10654199;27;20043;-88
2023/02/24 20:30:47;;;;;;;15.68;4.78;;;;;;;;;;10644203;27;20071;-89
2023/02/24 20:35:54;;;;;;;18.10;5.07;;;;;;;;;;10628145;27;20485;-89
2023/02/24 20:41:17;;;;;;;20.10;6.15;;;;;;;;;;10636532;27;20047;-91
2023/02/24 20:46:24;;;;;;;16.20;6.30;;;;;;;;;;10595307;27;20045;-88
2023/02/24 20:51:31;;;;;;;17.33;6.32;;;;;;;;;;10626133;27;20076;-90
2023/02/24 20:56:42;;;;;;;18.35;6.13;;;;;;;;;;10626074;27;20044;-91
2023/02/24 21:02:13;;;;;;;19.17;6.00;;;;;;;;;;10618430;27;21869;-91
2023/02/24 21:07:17;;;;;;;14.77;5.38;;;;;;;;;;10621102;27;20043;-77
2023/02/24 21:12:31;;;;;;;15.85;5.22;;;;;;;;;;10584622;27;20063;-77
2023/02/24 21:17:38;;;;;;;11.63;3.83;;;;;;;;;;10607539;27;20591;-76
2023/02/24 21:22:45;;;;;;;13.40;3.03;;;;;;;;;;10613325;27;20035;-79
2023/02/24 21:27:55;;;;;;;7.00;2.70;;;;;;;;;;10614040;27;20515;-77
2023/02/24 21:32:58;;;;;;;7.20;2.33;;;;;;;;;;10586317;27;20492;-76
2023/02/24 21:38:07;;;;;;;6.50;2.53;;;;;;;;;;10589607;27;20047;-77
2023/02/24 21:43:20;;;;;;;8.73;2.70;;;;;;;;;;10605947;27;20037;-78
2023/02/24 21:48:27;;;;;;;10.95;3.10;;;;;;;;;;10614949;27;20039;-77
2023/02/24 21:53:38;;;;;;;6.22;2.55;;;;;;;;;;10592739;27;20048;-77
2023/02/24 21:58:48;;;;;;;10.02;3.08;;;;;;;;;;10620908;27;20038;-76
2023/02/24 22:03:53;;;;;;;11.93;3.63;;;;;;;;;;10612845;27;20087;-76
2023/02/24 22:09:05;;;;;;;7.40;3.03;;;;;;;;;;10622805;27;20040;-77
2023/02/24 22:14:22;;;;;;;14.88;3.97;;;;;;;;;;10609047;27;20100;-76
2023/02/24 22:19:32;;;;;;;7.30;2.47;;;;;;;;;;10609814;27;20067;-74
2023/02/24 22:24:41;;;;;;;14.70;4.70;;;;;;;;;;10608319;27;20100;-76
2023/02/24 22:29:55;;;;;;;8.90;3.40;;;;;;;;;;10602181;27;20039;-77
2023/02/24 22:35:01;;;;;;;6.57;2.67;;;;;;;;;;10599052;27;20038;-77
2023/02/24 22:45:46;;;;;;;5.97;2.50;;;;;;;;;;10586413;27;20043;-77
2023/02/24 22:51:01;;;;;;;4.40;2.25;;;;;;;;;;10608597;27;20531;-75
2023/02/24 22:56:11;;;;;;;8.15;3.13;;;;;;;;;;10603140;27;20548;-76
2023/02/24 23:01:21;;;;;;;4.30;2.15;;;;;;;;;;10589048;27;20378;-77
2023/02/24 23:06:30;;;;;;;7.82;3.00;;;;;;;;;;10605775;27;20027;-77
2023/02/24 23:11:40;;;;;;;8.90;2.60;;;;;;;;;;10602927;27;20042;-77
2023/02/24 23:16:52;;;;;;;10.45;4.20;;;;;;;;;;10604324;27;20107;-77
2023/02/24 23:22:01;;;;;;;14.00;5.13;;;;;;;;;;10588414;27;20066;-76
2023/02/24 23:27:09;;;;;;;12.30;4.28;;;;;;;;;;10591224;27;20142;-76
2023/02/24 23:32:32;;;;;;;14.63;4.53;;;;;;;;;;10607688;27;20057;-77
2023/02/24 23:37:39;;;;;;;15.52;5.22;;;;;;;;;;10611813;27;20538;-77
2023/02/24 23:42:52;;;;;;;;;;;;;;;;;;10576266;27;20088;-76
2023/02/24 23:47:56;;;;;;;12.25;4.57;;;;;;;;;;10608352;27;20342;-76
2023/02/24 23:53:02;;;;;;;9.27;3.63;;;;;;;;;;10592043;27;20111;-77
2023/02/24 23:58:10;;;;;;;11.35;4.32;;;;;;;;;;10603767;27;20050;-77
